createdAt,value
2018-12-31T00:01:04.899Z,8.50
2018-12-31T00:03:32.323Z,4.77
2018-12-31T00:05:59.622Z,5.83
2018-12-31T00:08:26.903Z,11.87
2018-12-31T00:10:54.258Z,3.70
2018-12-31T00:13:21.506Z,5.30
2018-12-31T00:15:48.899Z,9.80
2018-12-31T00:18:16.250Z,6.63
2018-12-31T00:20:43.543Z,5.80
2018-12-31T00:23:10.935Z,5.40
2018-12-31T00:25:38.215Z,3.97
2018-12-31T00:28:05.583Z,6.47
2018-12-31T00:30:32.947Z,4.10
2018-12-31T00:33:00.206Z,4.23
2018-12-31T00:35:27.492Z,6.53
2018-12-31T00:37:54.755Z,4.73
2018-12-31T00:40:21.995Z,5.70
2018-12-31T00:42:49.406Z,11.53
2018-12-31T00:45:16.662Z,7.07
2018-12-31T00:47:43.953Z,10.67
2018-12-31T00:50:11.354Z,8.73
2018-12-31T00:52:38.614Z,4.13
2018-12-31T00:55:05.958Z,8.93
2018-12-31T00:57:33.346Z,5.10
2018-12-31T01:00:00.758Z,6.93
2018-12-31T01:02:28.135Z,4.90
2018-12-31T01:04:55.519Z,4.40
2018-12-31T01:07:22.835Z,4.17
2018-12-31T01:09:50.079Z,3.07
2018-12-31T01:12:17.350Z,2.93
2018-12-31T01:14:44.710Z,5.70
2018-12-31T01:17:12.038Z,8.33
2018-12-31T01:19:39.420Z,5.87
2018-12-31T01:22:06.879Z,6.63
2018-12-31T01:24:34.122Z,6.60
2018-12-31T01:27:01.403Z,6.97
2018-12-31T01:29:28.669Z,7.40
2018-12-31T01:31:56.042Z,5.93
2018-12-31T01:34:23.476Z,11.83
2018-12-31T01:36:50.882Z,9.23
2018-12-31T01:39:18.230Z,13.60
2018-12-31T01:41:45.735Z,8.37
2018-12-31T01:44:13.058Z,10.70
2018-12-31T01:46:40.442Z,11.43
2018-12-31T01:49:07.923Z,12.00
2018-12-31T01:51:35.203Z,9.73
2018-12-31T01:54:02.560Z,11.37
2018-12-31T01:56:29.848Z,11.90
2018-12-31T01:58:57.103Z,10.47
2018-12-31T02:01:24.398Z,14.30
2018-12-31T02:03:51.835Z,17.77
2018-12-31T02:06:19.828Z,6.87
2018-12-31T02:08:47.316Z,10.30
2018-12-31T02:11:14.573Z,10.57
2018-12-31T02:13:42.067Z,10.73
2018-12-31T02:16:09.326Z,12.00
2018-12-31T02:18:36.687Z,9.97
2018-12-31T02:21:03.957Z,13.73
2018-12-31T02:23:31.431Z,14.53
2018-12-31T02:25:58.803Z,8.07
2018-12-31T02:28:26.399Z,7.97
2018-12-31T02:30:53.748Z,9.40
2018-12-31T02:33:21.110Z,19.10
2018-12-31T02:35:48.480Z,10.07
2018-12-31T02:38:15.855Z,7.97
2018-12-31T02:40:43.280Z,8.17
2018-12-31T02:43:10.659Z,10.17
2018-12-31T02:45:38.014Z,10.47
2018-12-31T02:48:05.397Z,10.73
2018-12-31T02:50:32.788Z,5.40
2018-12-31T02:53:00.175Z,11.03
2018-12-31T02:55:27.551Z,14.87
2018-12-31T02:57:54.957Z,9.60
2018-12-31T03:00:22.804Z,9.50
2018-12-31T03:02:50.175Z,13.73
2018-12-31T03:05:17.543Z,17.20
2018-12-31T03:07:44.930Z,9.50
2018-12-31T03:10:12.428Z,10.80
2018-12-31T03:12:39.843Z,8.07
2018-12-31T03:15:08.116Z,11.30
2018-12-31T03:17:35.531Z,10.27
2018-12-31T03:20:03.157Z,6.87
2018-12-31T03:22:30.403Z,11.20
2018-12-31T03:24:57.803Z,11.63
2018-12-31T03:27:25.272Z,9.43
2018-12-31T03:29:52.655Z,13.30
2018-12-31T03:32:20.034Z,10.43
2018-12-31T03:34:47.432Z,17.43
2018-12-31T03:37:15.170Z,8.60
2018-12-31T03:39:42.476Z,19.70
2018-12-31T03:42:09.902Z,10.43
2018-12-31T03:44:37.346Z,10.10
2018-12-31T03:47:04.839Z,10.37
2018-12-31T03:49:32.206Z,9.37
2018-12-31T03:51:59.573Z,9.90
2018-12-31T03:54:26.954Z,12.83
2018-12-31T03:56:54.330Z,9.20
2018-12-31T03:59:21.573Z,11.60
2018-12-31T04:01:48.862Z,13.73
2018-12-31T04:04:16.235Z,12.17
2018-12-31T04:06:43.507Z,17.60
2018-12-31T04:09:10.780Z,12.30
2018-12-31T04:11:38.164Z,12.80
2018-12-31T04:14:05.531Z,13.10
2018-12-31T04:16:32.823Z,11.33
2018-12-31T04:19:00.191Z,16.70
2018-12-31T04:21:27.666Z,9.30
2018-12-31T04:23:55.063Z,8.60
2018-12-31T04:26:22.661Z,11.20
2018-12-31T04:28:50.015Z,13.13
2018-12-31T04:31:17.373Z,16.13
2018-12-31T04:33:44.765Z,11.27
2018-12-31T04:36:12.139Z,14.93
2018-12-31T04:38:39.519Z,9.03
2018-12-31T04:41:06.778Z,18.30
2018-12-31T04:43:34.270Z,11.20
2018-12-31T04:46:01.636Z,8.17
2018-12-31T04:48:28.998Z,11.90
2018-12-31T04:50:56.370Z,10.83
2018-12-31T04:53:24.283Z,9.90
2018-12-31T04:55:51.650Z,6.53
2018-12-31T04:58:23.007Z,11.90
2018-12-31T05:00:48.316Z,8.53
2018-12-31T05:03:15.727Z,13.83
2018-12-31T05:05:43.010Z,9.67
2018-12-31T05:08:10.403Z,9.90
2018-12-31T05:10:37.772Z,19.00
2018-12-31T05:13:05.015Z,7.10
2018-12-31T05:15:32.585Z,9.83
2018-12-31T05:18:00.080Z,7.60
2018-12-31T05:20:27.420Z,11.43
2018-12-31T05:22:54.776Z,11.90
2018-12-31T05:25:22.140Z,10.57
2018-12-31T05:27:49.507Z,8.83
2018-12-31T05:30:16.759Z,17.00
2018-12-31T05:32:44.015Z,7.20
2018-12-31T05:35:11.263Z,7.80
2018-12-31T05:37:38.631Z,22.43
2018-12-31T05:40:06.370Z,13.90
2018-12-31T05:42:33.747Z,7.90
2018-12-31T05:45:01.073Z,16.50
2018-12-31T05:47:28.511Z,20.77
2018-12-31T05:49:55.862Z,11.13
2018-12-31T05:52:23.327Z,6.87
2018-12-31T05:54:50.611Z,10.50
2018-12-31T05:57:18.059Z,12.00
2018-12-31T05:59:45.482Z,10.03
2018-12-31T06:02:12.785Z,14.77
2018-12-31T06:04:40.223Z,12.60
2018-12-31T06:07:07.591Z,11.90
2018-12-31T06:09:36.655Z,22.97
2018-12-31T06:12:04.099Z,9.93
2018-12-31T06:14:31.374Z,5.20
2018-12-31T06:16:58.640Z,7.27
2018-12-31T06:19:25.999Z,9.20
2018-12-31T06:21:53.270Z,14.23
2018-12-31T06:24:20.638Z,10.87
2018-12-31T06:26:47.972Z,13.60
2018-12-31T06:29:15.373Z,18.80
2018-12-31T06:31:42.743Z,10.43
2018-12-31T06:34:10.123Z,12.70
2018-12-31T06:36:37.379Z,13.03
2018-12-31T06:39:06.824Z,10.40
2018-12-31T06:41:34.204Z,15.20
2018-12-31T06:44:01.467Z,14.30
2018-12-31T06:46:28.838Z,24.93
2018-12-31T06:48:56.191Z,13.63
2018-12-31T06:51:23.474Z,14.40
2018-12-31T06:53:50.886Z,18.80
2018-12-31T06:56:18.160Z,12.70
2018-12-31T06:58:45.556Z,14.17
2018-12-31T07:01:12.829Z,16.53
2018-12-31T07:03:40.075Z,8.90
2018-12-31T07:06:07.346Z,10.57
2018-12-31T07:08:34.659Z,12.37
2018-12-31T07:11:02.472Z,12.10
2018-12-31T07:13:29.848Z,11.83
2018-12-31T07:15:57.110Z,7.60
2018-12-31T07:18:24.459Z,12.30
2018-12-31T07:20:51.947Z,13.23
2018-12-31T07:23:19.306Z,16.73
2018-12-31T07:25:46.682Z,11.90
2018-12-31T07:28:13.958Z,11.17
2018-12-31T07:30:41.243Z,20.57
2018-12-31T07:33:08.597Z,24.10
2018-12-31T07:35:35.911Z,22.37
2018-12-31T07:38:03.178Z,22.53
2018-12-31T07:40:30.475Z,19.57
2018-12-31T07:42:57.826Z,15.60
2018-12-31T07:45:25.203Z,10.80
2018-12-31T07:47:52.558Z,9.40
2018-12-31T07:50:19.818Z,10.40
2018-12-31T07:52:47.139Z,11.70
2018-12-31T07:55:14.538Z,9.37
2018-12-31T07:57:42.199Z,17.00
2018-12-31T08:00:09.719Z,17.93
2018-12-31T08:02:36.967Z,7.13
2018-12-31T08:05:17.269Z,10.07
2018-12-31T08:07:44.522Z,11.70
2018-12-31T08:10:11.841Z,14.73
2018-12-31T08:12:39.107Z,15.43
2018-12-31T08:15:21.848Z,9.77
2018-12-31T08:17:49.102Z,13.10
2018-12-31T08:20:16.451Z,10.10
2018-12-31T08:22:43.714Z,9.53
2018-12-31T08:25:10.979Z,14.50
2018-12-31T08:27:38.356Z,7.40
2018-12-31T08:30:05.663Z,12.33
2018-12-31T08:32:32.946Z,9.13
2018-12-31T08:35:00.235Z,14.40
2018-12-31T08:37:27.555Z,5.37
2018-12-31T08:39:54.915Z,13.57
2018-12-31T08:42:22.299Z,6.87
2018-12-31T08:44:49.582Z,7.50
2018-12-31T08:47:16.958Z,12.40
2018-12-31T08:49:44.306Z,6.93
2018-12-31T08:52:11.672Z,8.30
2018-12-31T08:54:38.910Z,10.37
2018-12-31T08:57:06.200Z,11.17
2018-12-31T08:59:33.671Z,7.43
2018-12-31T09:02:01.613Z,11.70
2018-12-31T09:04:29.112Z,6.30
2018-12-31T09:06:56.470Z,9.00
2018-12-31T09:09:23.886Z,5.43
2018-12-31T09:11:51.258Z,7.30
2018-12-31T09:14:18.635Z,12.10
2018-12-31T09:16:46.019Z,6.20
2018-12-31T09:19:13.268Z,8.63
2018-12-31T09:21:40.509Z,6.30
2018-12-31T09:24:07.871Z,12.57
2018-12-31T09:26:35.138Z,11.20
2018-12-31T09:29:02.367Z,11.07
2018-12-31T09:31:29.626Z,12.40
2018-12-31T09:33:57.004Z,8.37
2018-12-31T09:36:24.246Z,6.50
2018-12-31T09:38:51.728Z,5.47
2018-12-31T09:41:19.068Z,6.73
2018-12-31T09:43:46.427Z,14.10
2018-12-31T09:46:13.726Z,7.87
2018-12-31T09:48:41.012Z,10.30
2018-12-31T09:51:08.295Z,16.97
2018-12-31T09:53:35.559Z,8.97
2018-12-31T09:56:02.906Z,13.73
2018-12-31T09:58:30.259Z,9.90
2018-12-31T10:00:57.606Z,7.23
2018-12-31T10:03:24.911Z,10.00
2018-12-31T10:05:52.291Z,12.50
2018-12-31T10:08:20.160Z,9.10
2018-12-31T10:10:47.640Z,14.80
2018-12-31T10:13:14.959Z,10.90
2018-12-31T10:15:42.208Z,8.10
2018-12-31T10:18:09.478Z,11.83
2018-12-31T10:20:36.754Z,8.50
2018-12-31T10:23:04.021Z,10.97
2018-12-31T10:25:31.270Z,6.80
2018-12-31T10:27:58.618Z,8.00
2018-12-31T10:30:25.887Z,13.47
2018-12-31T10:32:53.133Z,6.67
2018-12-31T10:35:20.510Z,16.87
2018-12-31T10:37:47.878Z,5.80
2018-12-31T10:40:15.129Z,8.77
2018-12-31T10:42:42.383Z,9.93
2018-12-31T10:45:09.642Z,12.13
2018-12-31T10:47:36.914Z,11.57
2018-12-31T10:50:04.495Z,9.03
2018-12-31T10:52:31.767Z,11.07
2018-12-31T10:54:59.002Z,15.17
2018-12-31T10:57:26.263Z,20.33
2018-12-31T10:59:53.622Z,13.17
2018-12-31T11:02:20.994Z,18.03
2018-12-31T11:04:48.375Z,12.63
2018-12-31T11:07:15.652Z,14.70
2018-12-31T11:09:43.015Z,8.83
2018-12-31T11:12:10.327Z,6.43
2018-12-31T11:14:37.635Z,8.37
2018-12-31T11:17:05.016Z,18.03
2018-12-31T11:19:33.496Z,12.63
2018-12-31T11:22:01.084Z,12.00
2018-12-31T11:24:28.755Z,16.07
2018-12-31T11:26:56.037Z,5.80
2018-12-31T11:29:23.318Z,7.47
2018-12-31T11:31:50.699Z,8.33
2018-12-31T11:34:18.078Z,6.93
2018-12-31T11:36:45.364Z,7.20
2018-12-31T11:39:12.610Z,16.07
2018-12-31T11:41:39.971Z,11.73
2018-12-31T11:44:07.227Z,14.80
2018-12-31T11:46:34.506Z,9.60
2018-12-31T11:49:01.791Z,13.97
2018-12-31T11:51:29.059Z,11.57
2018-12-31T11:53:56.411Z,10.33
2018-12-31T11:56:23.787Z,11.10
2018-12-31T11:58:51.145Z,7.07
2018-12-31T12:01:18.822Z,8.93
2018-12-31T12:03:46.138Z,7.13
2018-12-31T12:06:13.506Z,13.33
2018-12-31T12:08:40.747Z,5.50
2018-12-31T12:11:08.059Z,12.53
2018-12-31T12:13:35.434Z,13.10
2018-12-31T12:16:02.810Z,12.60
2018-12-31T12:18:30.265Z,9.90
2018-12-31T12:20:57.635Z,8.23
2018-12-31T12:23:24.982Z,10.00
2018-12-31T12:25:52.755Z,9.20
2018-12-31T12:28:20.186Z,13.20
2018-12-31T12:30:47.571Z,9.10
2018-12-31T12:33:14.800Z,13.30
2018-12-31T12:35:42.055Z,12.93
2018-12-31T12:38:09.395Z,8.33
2018-12-31T12:40:36.738Z,5.93
2018-12-31T12:43:03.999Z,110.37
2018-12-31T12:45:31.331Z,7.07
2018-12-31T12:47:58.700Z,13.40
2018-12-31T12:50:26.059Z,14.27
2018-12-31T12:52:53.343Z,17.93
2018-12-31T12:55:20.617Z,12.63
2018-12-31T12:57:47.979Z,22.83
2018-12-31T13:00:15.221Z,12.60
2018-12-31T13:02:42.580Z,10.60
2018-12-31T13:05:09.835Z,15.13
2018-12-31T13:07:37.615Z,8.40
2018-12-31T13:10:05.204Z,10.13
2018-12-31T13:12:32.703Z,13.67
2018-12-31T13:15:01.771Z,7.10
2018-12-31T13:17:29.151Z,8.00
2018-12-31T13:19:56.398Z,9.80
2018-12-31T13:22:23.739Z,9.73
2018-12-31T13:24:51.011Z,9.27
2018-12-31T13:27:18.387Z,15.03
2018-12-31T13:29:45.709Z,8.80
2018-12-31T13:32:13.062Z,12.90
2018-12-31T13:34:41.004Z,19.17
2018-12-31T13:37:08.340Z,8.43
2018-12-31T13:39:35.727Z,11.70
2018-12-31T13:42:03.031Z,11.53
2018-12-31T13:44:30.274Z,9.97
2018-12-31T13:46:57.551Z,12.30
2018-12-31T13:49:24.918Z,14.80
2018-12-31T13:51:52.191Z,8.33
2018-12-31T13:54:19.550Z,14.27
2018-12-31T13:56:46.951Z,13.10
2018-12-31T13:59:14.407Z,17.47
2018-12-31T14:01:41.679Z,16.20
2018-12-31T14:04:09.046Z,17.60
2018-12-31T14:06:36.319Z,16.47
2018-12-31T14:09:05.886Z,10.50
2018-12-31T14:11:33.359Z,16.27
2018-12-31T14:14:00.662Z,18.63
2018-12-31T14:16:28.115Z,11.93
2018-12-31T14:18:55.508Z,15.30
2018-12-31T14:21:22.879Z,13.40
2018-12-31T14:23:50.465Z,14.40
2018-12-31T14:26:17.726Z,14.73
2018-12-31T14:28:44.972Z,21.73
2018-12-31T14:31:12.380Z,21.23
2018-12-31T14:33:39.679Z,10.60
2018-12-31T14:36:07.053Z,9.90
2018-12-31T14:38:34.516Z,16.50
2018-12-31T14:41:01.911Z,21.33
2018-12-31T14:43:29.468Z,15.03
2018-12-31T14:45:56.836Z,16.20
2018-12-31T14:48:24.096Z,14.23
2018-12-31T14:50:51.368Z,17.53
2018-12-31T14:53:18.743Z,20.73
2018-12-31T14:55:46.012Z,19.70
2018-12-31T14:58:13.386Z,29.73
2018-12-31T15:00:40.687Z,21.70
2018-12-31T15:03:07.950Z,22.63
2018-12-31T15:05:35.446Z,22.83
2018-12-31T15:08:02.822Z,17.37
2018-12-31T15:10:30.202Z,32.03
2018-12-31T15:12:57.559Z,38.00
2018-12-31T15:15:24.930Z,25.97
2018-12-31T15:17:52.368Z,21.60
2018-12-31T15:20:19.713Z,75.20
2018-12-31T15:22:47.097Z,35.07
2018-12-31T15:25:14.771Z,74.40
2018-12-31T15:27:42.023Z,88.47
2018-12-31T15:30:09.380Z,152.80
2018-12-31T15:32:36.707Z,265.13
2018-12-31T15:35:06.335Z,182.77
2018-12-31T15:37:33.604Z,130.03
2018-12-31T15:40:00.943Z,97.13
2018-12-31T15:42:29.678Z,70.50
2018-12-31T15:44:57.146Z,123.23
2018-12-31T15:47:24.499Z,132.13
2018-12-31T15:49:51.954Z,131.40
2018-12-31T15:52:19.772Z,65.53
2018-12-31T15:54:47.242Z,37.13
2018-12-31T15:57:14.631Z,44.93
2018-12-31T15:59:41.920Z,38.77
2018-12-31T16:02:09.187Z,37.20
2018-12-31T16:04:36.434Z,60.97
2018-12-31T16:07:04.207Z,60.67
2018-12-31T16:09:31.474Z,35.63
2018-12-31T16:11:58.851Z,35.30
2018-12-31T16:14:26.227Z,30.07
2018-12-31T16:16:53.495Z,40.93
2018-12-31T16:19:20.746Z,32.63
2018-12-31T16:21:48.103Z,122.27
2018-12-31T16:24:15.355Z,103.83
2018-12-31T16:26:42.694Z,147.23
2018-12-31T16:29:10.067Z,156.53
2018-12-31T16:31:37.429Z,267.60
2018-12-31T16:34:05.058Z,404.93
2018-12-31T16:36:32.324Z,259.10
2018-12-31T16:38:59.800Z,155.70
2018-12-31T16:41:27.190Z,161.37
2018-12-31T16:43:54.600Z,91.07
2018-12-31T16:46:22.066Z,72.13
2018-12-31T16:48:49.718Z,34.03
2018-12-31T16:51:18.715Z,33.23
2018-12-31T16:53:46.079Z,43.43
2018-12-31T16:56:13.355Z,42.87
2018-12-31T16:58:40.635Z,59.00
2018-12-31T17:01:08.007Z,52.30
2018-12-31T17:03:35.663Z,45.00
2018-12-31T17:06:03.034Z,52.47
2018-12-31T17:08:30.286Z,61.90
2018-12-31T17:10:57.661Z,35.50
2018-12-31T17:13:25.035Z,38.90
2018-12-31T17:15:54.167Z,30.00
2018-12-31T17:18:21.810Z,34.07
2018-12-31T17:20:49.135Z,26.37
2018-12-31T17:23:16.501Z,27.03
2018-12-31T17:25:43.983Z,20.57
2018-12-31T17:28:11.364Z,24.27
2018-12-31T17:30:38.694Z,28.50
2018-12-31T17:33:06.043Z,46.50
2018-12-31T17:35:33.467Z,52.90
2018-12-31T17:38:00.718Z,50.97
2018-12-31T17:40:28.171Z,45.70
2018-12-31T17:42:55.691Z,70.20
2018-12-31T17:45:23.926Z,51.20
2018-12-31T17:47:51.290Z,50.63
2018-12-31T17:50:18.559Z,41.40
2018-12-31T17:52:45.822Z,41.13
2018-12-31T17:55:13.102Z,34.13
2018-12-31T17:57:40.477Z,30.57
2018-12-31T18:00:09.194Z,30.67
2018-12-31T18:02:36.479Z,35.40
2018-12-31T18:05:03.846Z,27.60
2018-12-31T18:07:31.101Z,28.80
2018-12-31T18:09:58.581Z,27.47
2018-12-31T18:12:25.863Z,40.83
2018-12-31T18:14:53.543Z,38.67
2018-12-31T18:17:20.796Z,26.30
2018-12-31T18:19:48.178Z,48.87
2018-12-31T18:22:15.558Z,51.67
2018-12-31T18:24:42.839Z,58.90
2018-12-31T18:27:10.219Z,78.17
2018-12-31T18:29:37.707Z,62.20
2018-12-31T18:32:04.956Z,100.73
2018-12-31T18:34:32.311Z,105.80
2018-12-31T18:36:59.602Z,115.57
2018-12-31T18:39:27.039Z,52.73
2018-12-31T18:41:54.687Z,65.23
2018-12-31T18:44:21.943Z,60.87
2018-12-31T18:46:50.280Z,42.00
2018-12-31T18:49:17.538Z,32.13
2018-12-31T18:51:44.805Z,36.17
2018-12-31T18:54:12.191Z,27.57
2018-12-31T18:56:39.863Z,26.20
2018-12-31T18:59:07.127Z,26.40
2018-12-31T19:01:34.631Z,26.70
2018-12-31T19:04:02.003Z,26.13
2018-12-31T19:06:29.351Z,26.30
2018-12-31T19:08:56.699Z,29.50
2018-12-31T19:11:24.268Z,32.50
2018-12-31T19:13:51.639Z,29.07
2018-12-31T19:16:18.924Z,24.00
2018-12-31T19:18:46.617Z,29.33
2018-12-31T19:21:13.999Z,25.50
2018-12-31T19:23:41.262Z,29.83
2018-12-31T19:26:08.811Z,22.33
2018-12-31T19:28:36.066Z,21.83
2018-12-31T19:31:03.487Z,22.97
2018-12-31T19:33:30.867Z,20.60
2018-12-31T19:35:58.144Z,24.37
2018-12-31T19:38:25.410Z,26.83
2018-12-31T19:40:52.662Z,36.30
2018-12-31T19:43:19.964Z,24.27
2018-12-31T19:45:47.234Z,35.23
2018-12-31T19:48:16.295Z,36.60
2018-12-31T19:50:43.667Z,29.03
2018-12-31T19:53:10.910Z,23.97
2018-12-31T19:55:38.190Z,23.30
2018-12-31T19:58:05.454Z,30.60
2018-12-31T20:00:32.731Z,30.07
2018-12-31T20:03:00.212Z,27.13
2018-12-31T20:05:27.579Z,30.50
2018-12-31T20:07:55.230Z,23.77
2018-12-31T20:10:23.596Z,20.00
2018-12-31T20:12:51.206Z,24.83
2018-12-31T20:15:18.578Z,27.13
2018-12-31T20:17:46.058Z,24.23
2018-12-31T20:20:13.549Z,23.03
2018-12-31T20:22:41.195Z,25.70
2018-12-31T20:25:08.567Z,25.10
2018-12-31T20:27:36.048Z,25.97
2018-12-31T20:30:03.974Z,28.77
2018-12-31T20:32:31.399Z,22.80
2018-12-31T20:34:58.774Z,26.30
2018-12-31T20:37:26.115Z,27.30
2018-12-31T20:39:53.670Z,22.30
2018-12-31T20:42:21.134Z,32.00
2018-12-31T20:44:48.635Z,32.70
2018-12-31T20:47:16.014Z,29.37
2018-12-31T20:49:44.702Z,27.17
2018-12-31T20:52:12.050Z,26.90
2018-12-31T20:54:39.626Z,32.07
2018-12-31T20:57:07.090Z,27.67
2018-12-31T20:59:34.475Z,27.77
2018-12-31T21:02:01.958Z,25.70
2018-12-31T21:04:29.231Z,28.90
2018-12-31T21:06:56.472Z,31.60
2018-12-31T21:09:24.147Z,28.17
2018-12-31T21:11:51.406Z,29.57
2018-12-31T21:14:18.743Z,32.83
2018-12-31T21:16:46.111Z,32.77
2018-12-31T21:19:13.383Z,27.97
2018-12-31T21:21:40.724Z,21.97
2018-12-31T21:24:08.196Z,25.20
2018-12-31T21:26:35.595Z,28.33
2018-12-31T21:29:02.976Z,25.50
2018-12-31T21:31:30.411Z,26.60
2018-12-31T21:33:57.726Z,29.27
2018-12-31T21:36:24.976Z,34.70
2018-12-31T21:38:52.539Z,37.00
2018-12-31T21:41:19.918Z,29.73
2018-12-31T21:43:47.255Z,25.37
2018-12-31T21:48:46.361Z,27.53
2018-12-31T21:51:14.694Z,25.37
2018-12-31T21:53:42.190Z,24.30
2018-12-31T21:56:09.650Z,25.43
2018-12-31T21:58:37.007Z,22.10
2018-12-31T22:01:04.379Z,23.43
2018-12-31T22:03:31.743Z,24.60
2018-12-31T22:05:59.127Z,27.07
2018-12-31T22:08:26.459Z,24.70
2018-12-31T22:10:54.132Z,25.10
2018-12-31T22:13:21.579Z,22.77
2018-12-31T22:15:48.874Z,21.20
2018-12-31T22:18:16.237Z,22.73
2018-12-31T22:20:44.016Z,24.40
2018-12-31T22:23:11.412Z,24.70
2018-12-31T22:25:38.775Z,20.87
2018-12-31T22:28:06.019Z,25.77
2018-12-31T22:30:33.378Z,22.97
2018-12-31T22:33:00.639Z,22.07
2018-12-31T22:35:28.415Z,28.53
2018-12-31T22:37:56.536Z,22.60
2018-12-31T22:40:23.967Z,26.40
2018-12-31T22:42:51.330Z,22.83
2018-12-31T22:45:18.609Z,25.57
2018-12-31T22:47:46.070Z,25.03
2018-12-31T22:50:13.750Z,20.90
2018-12-31T22:52:41.891Z,22.57
2018-12-31T22:55:09.439Z,24.03
2018-12-31T22:57:36.787Z,30.57
2018-12-31T23:00:08.371Z,26.43
2018-12-31T23:02:36.137Z,26.50
2018-12-31T23:05:04.933Z,23.80
2018-12-31T23:07:32.302Z,24.27
2018-12-31T23:10:00.175Z,22.40
2018-12-31T23:12:27.522Z,23.70
2018-12-31T23:14:55.614Z,26.23
2018-12-31T23:17:22.862Z,30.70
2018-12-31T23:19:50.152Z,30.50
2018-12-31T23:22:17.645Z,42.13
2018-12-31T23:24:45.011Z,46.03
2018-12-31T23:27:12.455Z,24.23
2018-12-31T23:29:39.823Z,26.30
2018-12-31T23:32:07.078Z,26.00
2018-12-31T23:34:34.358Z,32.80
2018-12-31T23:37:01.632Z,35.17
2018-12-31T23:39:29.003Z,29.53
2018-12-31T23:41:56.350Z,26.70
2018-12-31T23:44:25.592Z,22.70
2018-12-31T23:46:52.965Z,25.90
2018-12-31T23:49:20.337Z,20.93
2018-12-31T23:51:47.618Z,23.63
2018-12-31T23:54:14.912Z,17.20
2018-12-31T23:56:42.587Z,18.50
2018-12-31T23:59:10.258Z,26.10
